KDGW/DGW METAR and TAF weather

Enter ICAO airport designator
Station Type Date Time Source
KDGW METAR 2018/10/19 15:53 UTC NOAA

KDGW 191553Z AUTO 30010KT 10SM CLR 11/01 A3036 RMK AO2 SLP274 T01060011


Station Type Date Time Source
KDGW Decoded METAR 2018/10/19 15:53 UTC NOAA

DOUGLAS CONVERSE COUNTY, WY, United States (KDGW) 42-48N 105-23W 1499M
Oct 19, 2018 - 11:53 AM EDT / 2018.10.19 1553 UTC
Wind: from the WNW (300 degrees) at 12 MPH (10 KT):0
Visibility: 10 mile(s):0
Sky conditions: clear
Temperature: 51.1 F (10.6 C)
Dew Point: 34.0 F (1.1 C)
Relative Humidity: 51%
Pressure (altimeter): 30.36 in. Hg (1028 hPa)
ob: KDGW 191553Z AUTO 30010KT 10SM CLR 11/01 A3036 RMK AO2 SLP274 T01060011
cycle: 16

Station Type Date Time Source
KDGW TAF UTC NOAA

Error!


Example: see airport list